hero-logo

Top 15 Knowers of CMS Cms Energy Corp - 2017-07-20

Rank Fund Result (K)
1 Carlson Capital L P $1,973
2 Zimmer Partners Lp $826
3 Lnz Capital Lp $468
4 Squarepoint Ops Llc $437
5 A R T Advisors Llc $243
6 Raymond James Associates $140
7 Westwood Holdings Group Inc $133
8 Ahl Partners Llp $122
9 Highbridge Capital Management Llc $101
10 Seven Eight Capital Lp $100
11 Elkhorn Investments Llc $83
12 Energy Income Partners Llc $81
13 Northwestern Mutual Investment Management Company Llc $76
14 Sciencast Management Lp $72
15 Walleye Trading Llc $68
Price Chart and News From Google Finance for CMS Cms Energy Corp
Owner Date Shares Change Price Change Result (K)
Acrospire Investment Management Llc 2017-03-31 600 $3.12 $1
Advantage Investment Management Llc 2017-03-31 0 $3.12 $0
Ahl Partners Llp 2017-03-31 39,324 $3.12 $122
Amalgamated Bank 2017-03-31 1,121 $3.12 $3
Amf Pensionsforsakring Ab 2017-03-31 -11,044 $3.12 $-34
Aperio Group Llc 2017-03-31 13,275 $3.12 $41
Archford Capital Strategies Llc 2017-03-31 0 $3.12 $0
Argi Investment Services Llc 2017-03-31 18,383 $3.12 $57
A R T Advisors Llc 2017-03-31 78,200 $3.12 $243
Assenagon Asset Management S A 2017-03-31 11,924 $3.12 $37
Assetmark Inc 2017-03-31 0 $3.12 $0
Avalon Advisors Llc 2017-03-31 -432 $3.12 $-1
Balentine Llc 2017-03-31 13 $3.12 $0
Bokf Na 2017-03-31 -388 $3.12 $-1
Bridgeway Capital Management Inc 2017-03-31 -3,560 $3.12 $-11
Brinker Capital Inc 2017-03-31 27 $3.12 $0
Brown Brothers Harriman Co 2017-03-31 127 $3.12 $0
California State Teachers Retirement System 2017-03-31 -24,800 $3.12 $-77
Capital Guardian Trust Co 2017-03-31 2,300 $3.12 $7
Capital International Ltd Ca 2017-03-31 4,400 $3.12 $13
Capital International Sarl 2017-03-31 3,700 $3.12 $11
Capstone Investment Advisors Llc 2017-03-31 -14,697 $3.12 $-45
Carlson Capital L P 2017-03-31 632,400 $3.12 $1,973
Castleton Investment Management Llc 2017-03-31 -127,852 $3.12 $-398
Chartwell Investment Partners Llc 2017-03-31 -995 $3.12 $-3
Cornerstone Capital Management Holdings Llc 2017-03-31 3,342 $3.12 $10
Crow Point Partners Llc 2017-03-31 0 $3.12 $0
D A Davidson Co 2017-03-31 259 $3.12 $0
Dana Investment Advisors Inc 2017-03-31 4,600 $3.12 $14
Earnest Partners Llc 2017-03-31 -239 $3.12 $0
Edgestream Partners L P 2017-03-31 13,473 $3.12 $42
Elkhorn Investments Llc 2017-03-31 26,667 $3.12 $83
Ellington Management Group Llc 2017-03-31 10,100 $3.12 $31
Energy Income Partners Llc 2017-03-31 26,182 $3.12 $81
Envestnet Asset Management Inc 2017-03-31 -983 $3.12 $-3
Fdo Partners Llc 2017-03-31 -29,789 $3.12 $-92
First Republic Investment Management Inc 2017-03-31 368 $3.12 $1
Focused Wealth Management Inc 2017-03-31 0 $3.12 $0
Glassman Wealth Services 2017-03-31 0 $3.12 $0
Glen Harbor Capital Management Llc 2017-03-31 1,980 $3.12 $6
Glg Llc 2017-03-31 -21 $3.12 $0
Gsa Capital Partners Llp 2017-03-31 9,927 $3.12 $30
Guggenheim Capital Llc 2017-03-31 6,194 $3.12 $19
Highbridge Capital Management Llc 2017-03-31 32,631 $3.12 $101
Horizon Kinetics Llc 2017-03-31 -500 $3.12 $-1
Hutchin Hill Capital Lp 2017-03-31 10,500 $3.12 $32
Ibex Wealth Advisors 2017-03-31 1 $3.12 $0
Ifp Advisors Inc 2017-03-31 -223 $3.12 $0
Jacobs Levy Equity Management Inc 2017-03-31 16,430 $3.12 $51
Jane Street Group Llc 2017-03-31 1,718 $3.12 $5
Johnson Investment Counsel Inc 2017-03-31 -5,139 $3.12 $-16
Kentucky Retirement Systems 2017-03-31 -2,307 $3.12 $-7
Kentucky Retirement Systems Insurance Trust Fund 2017-03-31 -1,467 $3.12 $-4
Ladenburg Thalmann Financial Services Inc 2017-03-31 -2,835 $3.12 $-8
Laffer Investments 2017-03-31 0 $3.12 $0
Lnz Capital Lp 2017-03-31 150,000 $3.12 $468
Loomis Sayles Co L P 2017-03-31 0 $3.12 $0
Magellan Asset Management Ltd 2017-03-31 -41,880 $3.12 $-130
Mason Street Advisors Llc 2017-03-31 500 $3.12 $1
Meadow Creek Investment Management Llc 2017-03-31 3,060 $3.12 $9
Monroe Bank Trust Mi 2017-03-31 0 $3.12 $0
Neuburgh Advisers Llc 2017-03-31 1,440 $3.12 $4
New York Life Trust Co 2017-03-31 0 $3.12 $0
Northwestern Mutual Investment Management Company Llc 2017-03-31 24,533 $3.12 $76
Northwestern Mutual Wealth Management Co 2017-03-31 -564 $3.12 $-1
Paloma Partners Management Co 2017-03-31 9,078 $3.12 $28
Piedmont Investment Advisors Llc 2017-03-31 -798 $3.12 $-2
Proficio Capital Partners Llc 2017-03-31 86 $3.12 $0
Public Employees Retirement System Of Ohio 2017-03-31 0 $3.12 $0
Raymond James Associates 2017-03-31 44,926 $3.12 $140
Riverhead Capital Management Llc 2017-03-31 1,705 $3.12 $5
Rothschild Asset Management Inc 2017-03-31 15,039 $3.12 $46
Schonfeld Strategic Advisors Llc 2017-03-31 13,004 $3.12 $40
Sciencast Management Lp 2017-03-31 23,255 $3.12 $72
Scotia Capital Inc 2017-03-31 -1,961 $3.12 $-6
Seven Eight Capital Lp 2017-03-31 32,300 $3.12 $100
Sowell Financial Services Llc 2017-03-31 -1,808 $3.12 $-5
Squarepoint Ops Llc 2017-03-31 140,091 $3.12 $437
Stifel Financial Corp 2017-03-31 811 $3.12 $2
Summit Global Investments 2017-03-31 1,050 $3.12 $3
Tobam 2017-03-31 -64,055 $3.12 $-199
Tph Asset Management Llc 2017-03-31 -8,224 $3.12 $-25
Two Sigma Securities Llc 2017-03-31 5,248 $3.12 $16
Veritable L P 2017-03-31 -29 $3.12 $0
Verition Fund Management Llc 2017-03-31 -41,182 $3.12 $-128
Walleye Trading Llc 2017-03-31 21,848 $3.12 $68
Webster Bank N A 2017-03-31 0 $3.12 $0
Westwood Holdings Group Inc 2017-03-31 42,940 $3.12 $133
Yorkbridge Wealth Partners Llc 2017-03-31 -623 $3.12 $-1
Zimmer Partners Lp 2017-03-31 265,000 $3.12 $826